Time;durP1;ratioP1;P1;durP2;ratioP2;P2;SDS_P1;SDS_P2;PMS_P1;PMS_P2;Temp;Humidity;BMP_temperature;BMP_pressure;BME280_temperature;BME280_humidity;BME280_pressure;Samples;Min_cycle;Max_cycle;Signal;HPM_P1;HPM_P2
2021/12/10 00:01:33;;;;;;;4.78;4.38;;;2.50;85.60;;;;;;5095718;28;20204;-58
2021/12/10 00:04:03;;;;;;;5.47;4.10;;;2.50;85.40;;;;;;5094614;28;20295;-54
2021/12/10 00:06:32;;;;;;;5.70;3.85;;;2.50;85.30;;;;;;5095570;28;20647;-54
2021/12/10 00:09:08;;;;;;;4.60;4.20;;;2.50;85.30;;;;;;5095466;28;20666;-58
2021/12/10 00:11:42;;;;;;;5.20;3.95;;;2.50;85.10;;;;;;5095447;28;20204;-55
2021/12/10 00:14:09;;;;;;;4.50;4.07;;;2.40;85.10;;;;;;5095619;28;20201;-56
2021/12/10 00:16:37;;;;;;;4.70;3.85;;;2.30;85.40;;;;;;5094670;28;20200;-56
2021/12/10 00:19:18;;;;;;;9.40;3.90;;;2.30;85.70;;;;;;5095145;28;20315;-55
2021/12/10 00:21:47;;;;;;;3.72;3.15;;;2.30;85.60;;;;;;5095236;28;20211;-56
2021/12/10 00:24:15;;;;;;;4.45;4.10;;;2.30;85.50;;;;;;5095036;28;20228;-55
2021/12/10 00:26:44;;;;;;;5.75;4.20;;;2.40;85.00;;;;;;5095101;28;20761;-56
2021/12/10 00:29:12;;;;;;;6.70;4.28;;;2.30;85.30;;;;;;5095007;28;20240;-56
2021/12/10 00:31:48;;;;;;;7.03;3.85;;;2.30;85.30;;;;;;5093984;28;20200;-57
2021/12/10 00:34:23;;;;;;;6.05;3.65;;;2.20;85.20;;;;;;5095088;28;20299;-58
2021/12/10 00:36:53;;;;;;;4.35;3.30;;;2.10;85.60;;;;;;5095036;28;20195;-55
2021/12/10 00:39:24;;;;;;;7.28;4.80;;;2.10;85.80;;;;;;5094746;28;20235;-57
2021/12/10 00:41:53;;;;;;;5.75;3.80;;;2.10;85.60;;;;;;5094909;28;20200;-57
2021/12/10 00:44:20;;;;;;;5.43;4.50;;;2.00;85.70;;;;;;5094614;28;20314;-59
2021/12/10 00:46:47;;;;;;;5.13;3.38;;;2.10;85.70;;;;;;5093300;28;20206;-56
2021/12/10 00:49:15;;;;;;;4.10;3.70;;;2.10;85.50;;;;;;5094618;28;20210;-57
2021/12/10 00:51:43;;;;;;;4.93;3.78;;;2.10;85.40;;;;;;5094701;28;20208;-59
2021/12/10 00:54:12;;;;;;;9.15;4.03;;;2.00;85.70;;;;;;5094608;28;20579;-58
2021/12/10 00:56:41;;;;;;;4.40;4.00;;;1.80;85.90;;;;;;5094665;28;20200;-57
2021/12/10 00:59:10;;;;;;;6.25;3.97;;;1.80;86.00;;;;;;5094638;28;20260;-58
2021/12/10 01:01:39;;;;;;;4.40;3.42;;;1.80;86.00;;;;;;5093102;28;20200;-59
2021/12/10 01:04:09;;;;;;;4.22;3.53;;;1.70;86.20;;;;;;5094443;28;20207;-59
2021/12/10 01:06:39;;;;;;;5.82;3.90;;;1.60;86.60;;;;;;5094301;28;20282;-58
2021/12/10 01:09:11;;;;;;;5.25;3.70;;;1.50;86.90;;;;;;5094365;28;20294;-60
2021/12/10 01:11:41;;;;;;;5.82;3.80;;;1.50;86.90;;;;;;5094433;28;20232;-58
2021/12/10 01:14:21;;;;;;;4.10;3.70;;;1.50;86.90;;;;;;5094286;28;20292;-58
2021/12/10 01:25:23;;;;;;;4.65;4.35;;;1.70;86.20;;;;;;5093987;28;20227;-56
2021/12/10 01:27:50;;;;;;;3.72;3.42;;;1.80;86.00;;;;;;5093954;28;20200;-57
2021/12/10 01:30:22;;;;;;;5.78;3.47;;;1.90;85.40;;;;;;5093908;28;20206;-56
2021/12/10 01:32:52;;;;;;;8.23;3.97;;;1.80;84.70;;;;;;5092563;28;20207;-56
2021/12/10 01:35:23;;;;;;;3.80;3.40;;;1.80;84.60;;;;;;5093862;28;20212;-56
2021/12/10 01:37:51;;;;;;;3.83;3.50;;;1.80;84.70;;;;;;5093672;28;20210;-55
2021/12/10 01:40:21;;;;;;;5.93;4.18;;;1.80;84.40;;;;;;5093639;28;20270;-56
2021/12/10 01:42:50;;;;;;;3.90;3.60;;;1.80;84.50;;;;;;5093501;28;20690;-56
2021/12/10 01:45:23;;;;;;;3.80;3.50;;;1.80;84.10;;;;;;5093683;28;20560;-55
2021/12/10 01:47:55;;;;;;;5.53;4.10;;;1.80;84.00;;;;;;5092234;28;20203;-55
2021/12/10 01:50:25;;;;;;;4.30;3.70;;;1.80;84.10;;;;;;5093455;28;20656;-55
2021/12/10 01:52:55;;;;;;;4.00;3.47;;;1.80;84.00;;;;;;5093502;28;20204;-56
2021/12/10 01:55:24;;;;;;;5.43;4.07;;;1.90;83.90;;;;;;5093526;28;20200;-55
2021/12/10 01:57:54;;;;;;;3.67;3.30;;;1.90;83.60;;;;;;5093388;28;20235;-56
2021/12/10 02:00:28;;;;;;;5.10;3.95;;;2.00;83.60;;;;;;5093256;28;20231;-57
2021/12/10 02:02:56;;;;;;;4.43;3.58;;;2.00;83.60;;;;;;5091895;28;20195;-57
2021/12/10 02:05:23;;;;;;;4.10;3.70;;;2.10;83.10;;;;;;5093288;28;20231;-55
2021/12/10 02:07:51;;;;;;;3.60;3.40;;;2.10;82.50;;;;;;5093250;28;20227;-55
2021/12/10 02:10:20;;;;;;;3.75;3.55;;;2.10;82.30;;;;;;5093287;28;20207;-58
2021/12/10 02:12:49;;;;;;;4.22;3.25;;;2.00;82.00;;;;;;5093148;28;20208;-56
2021/12/10 02:15:16;;;;;;;4.80;3.88;;;2.00;82.20;;;;;;5093205;28;20204;-56
2021/12/10 02:17:47;;;;;;;4.65;3.85;;;2.00;82.10;;;;;;5091799;28;20607;-55
2021/12/10 02:20:17;;;;;;;3.95;3.55;;;2.00;82.40;;;;;;5093067;28;20583;-55
2021/12/10 02:22:47;;;;;;;3.72;3.42;;;2.10;82.40;;;;;;5093113;28;20200;-55
2021/12/10 02:25:18;;;;;;;4.28;3.88;;;2.10;82.10;;;;;;5092975;28;20311;-55
2021/12/10 02:27:45;;;;;;;4.50;4.13;;;2.10;81.60;;;;;;5092932;28;20231;-55
2021/12/10 02:30:14;;;;;;;4.78;3.90;;;2.10;81.70;;;;;;5092972;28;20209;-57
2021/12/10 02:32:41;;;;;;;8.75;4.10;;;2.10;81.60;;;;;;5091713;28;20200;-56
2021/12/10 02:35:11;;;;;;;3.95;3.65;;;2.10;81.70;;;;;;5092936;28;20210;-56
2021/12/10 02:37:38;;;;;;;4.90;3.53;;;2.10;81.30;;;;;;5092913;28;20200;-57
2021/12/10 02:40:10;;;;;;;3.95;3.50;;;2.10;81.50;;;;;;5092892;28;20231;-56
2021/12/10 02:42:38;;;;;;;6.63;3.92;;;2.10;81.20;;;;;;5092661;28;20314;-58
2021/12/10 02:45:06;;;;;;;5.65;3.60;;;2.10;81.60;;;;;;5092835;28;20206;-55
2021/12/10 02:47:33;;;;;;;3.85;3.55;;;2.10;81.70;;;;;;5091432;28;20204;-55
2021/12/10 02:50:00;;;;;;;4.25;3.80;;;2.10;81.10;;;;;;5092765;28;20295;-56
2021/12/10 02:52:28;;;;;;;4.53;3.90;;;2.10;81.30;;;;;;5092832;28;20204;-55
2021/12/10 02:54:57;;;;;;;5.38;4.07;;;2.10;81.20;;;;;;5092650;28;20200;-55
2021/12/10 02:57:27;;;;;;;4.57;4.30;;;2.10;80.70;;;;;;5092754;28;20203;-56
2021/12/10 02:59:54;;;;;;;3.75;3.40;;;2.10;80.80;;;;;;5092539;28;20228;-56
2021/12/10 03:02:24;;;;;;;3.83;3.53;;;2.00;80.50;;;;;;5091398;28;20200;-57
2021/12/10 03:04:51;;;;;;;4.90;4.00;;;1.90;80.90;;;;;;5092625;28;20689;-57
2021/12/10 03:07:22;;;;;;;4.13;3.83;;;1.90;81.20;;;;;;5092669;28;20625;-55
2021/12/10 03:09:51;;;;;;;5.55;4.25;;;1.80;81.30;;;;;;5092523;28;20662;-56
2021/12/10 03:12:21;;;;;;;4.47;3.78;;;1.80;81.30;;;;;;5092609;28;20595;-56
2021/12/10 03:14:52;;;;;;;4.85;4.38;;;1.80;81.90;;;;;;5092667;28;20214;-56
2021/12/10 03:17:24;;;;;;;4.40;4.10;;;1.80;81.50;;;;;;5091195;28;20204;-56
2021/12/10 03:19:53;;;;;;;5.90;4.70;;;1.80;81.60;;;;;;5092477;28;20310;-56
2021/12/10 03:22:21;;;;;;;5.40;3.90;;;1.80;81.50;;;;;;5092367;28;20210;-58
2021/12/10 03:24:48;;;;;;;5.72;3.80;;;1.70;81.30;;;;;;5093919;28;20226;-56
2021/12/10 03:27:15;;;;;;;5.32;4.05;;;1.70;81.50;;;;;;5096321;28;20230;-58
2021/12/10 03:29:45;;;;;;;4.10;3.80;;;1.70;81.70;;;;;;5096319;28;20200;-57
2021/12/10 03:32:18;;;;;;;5.05;4.55;;;1.70;81.70;;;;;;5094926;28;20677;-56
2021/12/10 03:34:45;;;;;;;4.20;3.75;;;1.70;81.80;;;;;;5096074;28;20207;-55
2021/12/10 03:37:17;;;;;;;4.25;3.95;;;1.70;81.90;;;;;;5096124;28;20708;-56
2021/12/10 03:39:44;;;;;;;4.15;3.85;;;1.70;81.70;;;;;;5096027;28;20234;-55
2021/12/10 03:42:11;;;;;;;4.00;3.60;;;1.70;81.80;;;;;;5095952;28;20204;-56
2021/12/10 03:44:39;;;;;;;4.80;3.65;;;1.70;82.10;;;;;;5096019;28;20668;-56
2021/12/10 03:47:09;;;;;;;5.70;4.07;;;1.70;82.20;;;;;;5094465;28;20734;-56
2021/12/10 03:49:39;;;;;;;4.30;3.90;;;1.80;81.80;;;;;;5095966;28;20235;-55
2021/12/10 03:52:09;;;;;;;10.13;4.32;;;1.70;81.50;;;;;;5095974;28;20278;-57
2021/12/10 03:54:37;;;;;;;4.70;4.30;;;1.70;81.70;;;;;;5095815;28;20264;-56
2021/12/10 03:57:05;;;;;;;4.57;4.10;;;1.70;81.70;;;;;;5095763;28;20740;-56
2021/12/10 03:59:32;;;;;;;7.78;4.55;;;1.70;81.80;;;;;;5095602;28;20196;-57
2021/12/10 04:01:59;;;;;;;4.85;4.50;;;1.80;81.70;;;;;;5094326;28;20565;-56
2021/12/10 04:04:33;;;;;;;5.05;4.55;;;1.80;81.50;;;;;;5095691;28;20287;-57
2021/12/10 04:07:07;;;;;;;5.65;4.28;;;1.80;81.70;;;;;;5095528;28;20231;-59
2021/12/10 04:09:34;;;;;;;5.78;4.57;;;1.90;81.70;;;;;;5095550;28;20203;-56
2021/12/10 04:12:01;;;;;;;5.63;4.50;;;1.90;81.70;;;;;;5095460;28;20201;-56
2021/12/10 04:14:28;;;;;;;4.82;4.43;;;1.90;81.40;;;;;;5095434;28;20200;-56
2021/12/10 04:16:56;;;;;;;5.45;4.32;;;1.80;81.40;;;;;;5093962;28;20204;-56
2021/12/10 04:19:25;;;;;;;6.70;5.15;;;1.80;81.70;;;;;;5095256;28;20204;-59
2021/12/10 04:21:56;;;;;;;5.75;5.25;;;1.70;81.40;;;;;;5095319;28;20287;-57
2021/12/10 04:24:26;;;;;;;5.70;5.30;;;1.70;81.20;;;;;;5095151;28;20310;-56
2021/12/10 04:26:53;;;;;;;10.60;5.43;;;1.60;81.50;;;;;;5095065;28;20651;-56
2021/12/10 04:29:21;;;;;;;6.03;5.53;;;1.60;81.70;;;;;;5095133;28;20208;-58
2021/12/10 04:31:48;;;;;;;7.00;6.40;;;1.60;82.00;;;;;;5093695;28;20287;-56
2021/12/10 04:34:15;;;;;;;6.72;5.32;;;1.60;81.50;;;;;;5094984;28;20204;-57
2021/12/10 04:36:43;;;;;;;5.70;5.20;;;1.50;81.40;;;;;;5093702;28;20200;-57
2021/12/10 04:39:10;;;;;;;6.05;5.55;;;1.40;81.60;;;;;;5095016;28;20211;-58
2021/12/10 04:41:39;;;;;;;5.90;5.40;;;1.20;82.30;;;;;;5094850;28;20228;-56
2021/12/10 04:44:07;;;;;;;5.68;5.18;;;1.20;82.70;;;;;;5094847;28;20224;-58
2021/12/10 04:46:34;;;;;;;7.00;6.30;;;1.30;82.10;;;;;;5094703;28;20542;-56
2021/12/10 04:49:04;;;;;;;5.47;4.78;;;1.30;82.30;;;;;;5093783;28;20220;-56
2021/12/10 04:51:34;;;;;;;10.82;6.15;;;1.30;82.00;;;;;;5094733;28;20200;-57
2021/12/10 04:54:02;;;;;;;5.65;4.65;;;1.20;82.00;;;;;;5094604;28;20222;-58
2021/12/10 04:56:29;;;;;;;6.35;5.75;;;1.20;82.60;;;;;;5094597;28;20200;-63
2021/12/10 04:58:59;;;;;;;6.50;5.50;;;1.30;82.50;;;;;;5094588;28;20218;-55
2021/12/10 05:01:26;;;;;;;9.13;5.80;;;1.30;82.60;;;;;;5094526;28;20258;-55
2021/12/10 05:03:53;;;;;;;6.15;5.10;;;1.40;82.50;;;;;;5093141;28;20290;-56
2021/12/10 05:06:20;;;;;;;6.63;5.82;;;1.40;82.50;;;;;;5094398;28;20284;-56
2021/12/10 05:08:48;;;;;;;6.38;5.47;;;1.50;82.50;;;;;;5094308;28;20298;-56
2021/12/10 05:11:15;;;;;;;6.93;6.32;;;1.50;82.40;;;;;;5094412;28;20294;-57
2021/12/10 05:13:44;;;;;;;9.02;5.97;;;1.40;82.10;;;;;;5094317;28;20204;-58
2021/12/10 05:16:13;;;;;;;8.32;6.15;;;1.30;82.10;;;;;;5094190;28;20206;-56
2021/12/10 05:18:45;;;;;;;8.40;5.63;;;1.30;82.40;;;;;;5092871;28;20196;-56
2021/12/10 05:21:14;;;;;;;7.20;6.38;;;1.40;82.50;;;;;;5093941;28;20227;-57
2021/12/10 05:23:41;;;;;;;9.35;6.05;;;1.40;82.60;;;;;;5094086;28;20307;-56
2021/12/10 05:26:09;;;;;;;8.85;6.10;;;1.40;82.40;;;;;;5094022;28;20741;-56
2021/12/10 05:28:36;;;;;;;7.22;6.30;;;1.50;82.20;;;;;;5093935;28;20204;-56
2021/12/10 05:31:03;;;;;;;7.47;6.75;;;1.40;81.80;;;;;;5093932;28;20569;-56
2021/12/10 05:33:31;;;;;;;10.85;6.47;;;1.30;82.40;;;;;;5092486;28;20287;-57
2021/12/10 05:36:01;;;;;;;8.60;6.10;;;1.30;82.70;;;;;;5093800;28;20661;-60
2021/12/10 05:38:28;;;;;;;10.75;5.75;;;1.40;82.40;;;;;;5093820;28;20204;-56
2021/12/10 05:40:56;;;;;;;9.52;6.70;;;1.30;82.70;;;;;;5093737;28;20242;-56
2021/12/10 05:43:24;;;;;;;10.23;7.05;;;1.30;82.80;;;;;;5093575;28;20331;-56
2021/12/10 05:45:53;;;;;;;8.93;6.65;;;1.40;82.70;;;;;;5093622;28;20685;-56
2021/12/10 05:48:21;;;;;;;8.38;6.60;;;1.40;82.80;;;;;;5091817;28;20654;-60
2021/12/10 05:50:49;;;;;;;7.88;6.53;;;1.60;82.40;;;;;;5093533;28;20210;-57
2021/12/10 05:53:16;;;;;;;7.80;7.03;;;1.60;82.40;;;;;;5093635;28;20211;-56
2021/12/10 05:55:43;;;;;;;9.00;7.90;;;1.60;82.30;;;;;;5093583;28;20196;-58
2021/12/10 05:58:12;;;;;;;8.52;7.30;;;1.50;81.90;;;;;;5093537;28;20286;-56
2021/12/10 06:00:42;;;;;;;7.80;7.05;;;1.50;82.00;;;;;;5093248;28;20690;-55
2021/12/10 06:03:09;;;;;;;9.35;6.82;;;1.40;81.80;;;;;;5092206;28;20199;-56
2021/12/10 06:05:36;;;;;;;8.52;6.93;;;1.40;81.90;;;;;;5093291;28;20681;-56
2021/12/10 06:08:06;;;;;;;7.32;6.63;;;1.40;82.20;;;;;;5093349;28;20227;-56
2021/12/10 06:10:34;;;;;;;8.80;7.28;;;1.40;82.50;;;;;;5093315;28;20287;-56
2021/12/10 06:13:01;;;;;;;14.35;8.00;;;1.40;82.60;;;;;;5093179;28;20206;-56
2021/12/10 06:15:29;;;;;;;8.80;7.03;;;1.50;82.60;;;;;;5093022;28;20210;-57
2021/12/10 06:17:57;;;;;;;8.35;7.32;;;1.50;82.70;;;;;;5091932;28;20566;-57
2021/12/10 06:20:27;;;;;;;11.38;8.05;;;1.50;82.70;;;;;;5093060;28;20227;-57
2021/12/10 06:22:54;;;;;;;9.75;6.45;;;1.60;82.70;;;;;;5092999;28;20605;-57
2021/12/10 06:25:22;;;;;;;9.15;7.55;;;1.60;82.60;;;;;;5093016;28;20196;-55
2021/12/10 06:27:49;;;;;;;10.88;8.05;;;1.60;82.60;;;;;;5092978;28;20218;-56
2021/12/10 06:30:20;;;;;;;10.70;7.53;;;1.60;82.00;;;;;;5092941;28;20200;-56
2021/12/10 06:32:50;;;;;;;9.38;8.43;;;1.50;82.10;;;;;;5091536;28;20201;-56
2021/12/10 06:35:18;;;;;;;12.45;8.02;;;1.50;82.40;;;;;;5093019;28;20639;-56
2021/12/10 06:37:46;;;;;;;9.85;7.90;;;1.50;82.50;;;;;;5092913;28;20569;-56
2021/12/10 06:40:15;;;;;;;15.00;8.77;;;1.50;82.60;;;;;;5092819;28;20238;-58
2021/12/10 06:42:44;;;;;;;11.10;8.00;;;1.40;82.60;;;;;;5092729;28;20765;-56
2021/12/10 06:45:13;;;;;;;10.90;8.73;;;1.50;82.60;;;;;;5092983;28;20204;-56
2021/12/10 06:47:44;;;;;;;9.63;7.85;;;1.50;82.30;;;;;;5091629;28;20206;-56
2021/12/10 06:50:12;;;;;;;12.95;8.48;;;1.60;82.30;;;;;;5092991;28;20211;-58
2021/12/10 06:52:39;;;;;;;10.43;7.15;;;1.70;82.40;;;;;;5092829;28;20729;-56
2021/12/10 06:55:06;;;;;;;10.85;8.30;;;1.70;81.90;;;;;;5092713;28;20627;-56
2021/12/10 06:57:34;;;;;;;10.00;8.30;;;1.70;82.20;;;;;;5092767;28;20200;-60
2021/12/10 07:00:05;;;;;;;13.77;8.43;;;1.70;82.40;;;;;;5094786;28;20207;-56
2021/12/10 07:02:32;;;;;;;15.13;9.30;;;1.70;81.90;;;;;;5095393;28;20317;-57
2021/12/10 07:04:58;;;;;;;10.60;7.85;;;1.70;81.80;;;;;;5096717;28;20208;-56
2021/12/10 07:07:25;;;;;;;9.20;7.47;;;1.70;81.50;;;;;;5096539;28;20682;-57
2021/12/10 07:09:53;;;;;;;9.60;6.70;;;1.70;82.10;;;;;;5096767;28;20210;-56
2021/12/10 07:12:19;;;;;;;11.50;9.25;;;1.70;82.00;;;;;;5096572;28;20204;-59
2021/12/10 07:14:46;;;;;;;11.95;7.70;;;1.80;81.80;;;;;;5096561;28;20254;-56
2021/12/10 07:17:15;;;;;;;10.20;7.63;;;1.80;81.70;;;;;;5095034;28;20278;-56
2021/12/10 07:19:42;;;;;;;13.30;9.65;;;1.80;81.70;;;;;;5096496;28;20564;-59
2021/12/10 07:22:09;;;;;;;10.63;7.50;;;1.80;81.80;;;;;;5096204;28;20266;-56
2021/12/10 07:24:35;;;;;;;10.75;7.30;;;1.90;81.60;;;;;;5096411;28;20214;-56
2021/12/10 07:27:03;;;;;;;7.80;6.50;;;1.90;81.40;;;;;;5096343;28;20294;-56
2021/12/10 07:29:30;;;;;;;11.57;7.50;;;1.90;81.40;;;;;;5096094;28;20727;-57
2021/12/10 07:31:57;;;;;;;9.57;7.55;;;1.90;81.30;;;;;;5094784;28;20326;-56
2021/12/10 07:34:25;;;;;;;9.27;6.88;;;2.00;81.60;;;;;;5096051;28;20243;-56
2021/12/10 07:36:52;;;;;;;8.02;7.25;;;2.00;81.10;;;;;;5096019;28;20233;-57
2021/12/10 07:39:19;;;;;;;9.15;6.90;;;2.00;81.20;;;;;;5095985;28;20235;-57
2021/12/10 07:41:47;;;;;;;10.93;7.50;;;2.00;81.20;;;;;;5095789;28;20284;-56
2021/12/10 07:44:14;;;;;;;12.57;8.18;;;2.10;81.20;;;;;;5095880;28;20228;-62
2021/12/10 07:46:41;;;;;;;8.32;7.03;;;2.10;81.10;;;;;;5095123;28;20734;-56
2021/12/10 07:49:15;;;;;;;10.07;7.30;;;2.00;79.30;;;;;;5095458;28;20296;-56
2021/12/10 07:51:49;;;;;;;9.20;8.20;;;1.80;79.50;;;;;;5095780;28;20210;-56
2021/12/10 07:54:16;;;;;;;10.27;7.90;;;1.80;79.50;;;;;;5095766;28;20207;-56
2021/12/10 07:56:43;;;;;;;7.78;7.05;;;1.80;80.30;;;;;;5095768;28;20200;-57
2021/12/10 07:59:10;;;;;;;10.05;7.53;;;1.80;80.50;;;;;;5095705;28;20208;-57
2021/12/10 08:01:37;;;;;;;8.57;7.68;;;1.90;80.20;;;;;;5095514;28;20265;-56
2021/12/10 08:04:06;;;;;;;8.80;7.90;;;1.90;79.80;;;;;;5094652;28;20240;-56
2021/12/10 08:06:34;;;;;;;8.80;7.90;;;1.80;78.70;;;;;;5095709;28;20564;-56
2021/12/10 08:09:04;;;;;;;12.50;7.72;;;1.70;78.90;;;;;;5095530;28;20214;-56
2021/12/10 08:11:31;;;;;;;8.88;7.82;;;1.60;79.20;;;;;;5095189;28;20204;-59
2021/12/10 08:13:58;;;;;;;8.73;7.93;;;1.50;79.10;;;;;;5095357;28;20280;-59
2021/12/10 08:16:25;;;;;;;8.40;7.60;;;1.50;79.90;;;;;;5095302;28;20218;-56
2021/12/10 08:18:53;;;;;;;9.93;8.40;;;1.60;79.50;;;;;;5094214;28;20200;-56
2021/12/10 08:21:22;;;;;;;8.52;7.20;;;1.70;79.50;;;;;;5095211;28;20320;-60
2021/12/10 08:23:50;;;;;;;9.27;7.50;;;1.80;79.70;;;;;;5095176;28;20689;-56
2021/12/10 08:26:18;;;;;;;7.82;7.10;;;1.90;79.00;;;;;;5095172;28;20211;-56
2021/12/10 08:28:45;;;;;;;7.20;6.60;;;2.00;78.80;;;;;;5094989;28;20650;-56
2021/12/10 08:31:15;;;;;;;8.43;7.72;;;2.00;77.90;;;;;;5095164;28;20283;-56
2021/12/10 08:33:44;;;;;;;9.55;7.97;;;1.80;77.00;;;;;;5093732;28;20294;-57
2021/12/10 08:36:12;;;;;;;8.23;7.53;;;1.70;77.40;;;;;;5095127;28;20242;-56
2021/12/10 08:38:40;;;;;;;9.63;8.45;;;1.60;77.70;;;;;;5094994;28;20208;-58
2021/12/10 08:41:10;;;;;;;8.00;6.70;;;1.40;78.40;;;;;;5094905;28;20230;-58
2021/12/10 08:43:40;;;;;;;9.55;8.52;;;1.20;79.40;;;;;;5094794;28;20238;-58
2021/12/10 08:46:07;;;;;;;9.70;8.70;;;1.20;79.90;;;;;;5094950;28;20208;-57
2021/12/10 08:48:36;;;;;;;9.88;8.88;;;1.30;79.50;;;;;;5093729;28;20242;-57
2021/12/10 08:51:08;;;;;;;8.93;7.82;;;1.40;79.30;;;;;;5094930;28;20203;-58
2021/12/10 08:53:35;;;;;;;9.80;8.80;;;1.60;78.60;;;;;;5094682;28;20204;-57
2021/12/10 08:56:02;;;;;;;10.18;9.18;;;1.60;78.10;;;;;;5094526;28;20303;-58
2021/12/10 08:58:29;;;;;;;8.98;8.15;;;1.60;77.80;;;;;;5094651;28;20222;-57
2021/12/10 09:01:00;;;;;;;10.23;8.52;;;1.70;78.20;;;;;;5094442;28;20211;-57
2021/12/10 09:03:27;;;;;;;10.07;8.32;;;1.80;77.90;;;;;;5093256;28;20214;-57
2021/12/10 09:05:55;;;;;;;12.05;9.13;;;1.90;78.20;;;;;;5094517;28;20287;-58
2021/12/10 09:08:22;;;;;;;10.52;8.02;;;2.00;77.80;;;;;;5094301;28;20204;-61
2021/12/10 09:10:51;;;;;;;13.18;8.77;;;2.10;77.80;;;;;;5094306;28;20659;-54
2021/12/10 09:13:20;;;;;;;9.82;8.82;;;2.20;77.40;;;;;;5094285;28;20298;-55
2021/12/10 09:15:51;;;;;;;8.98;7.43;;;2.20;76.40;;;;;;5094231;28;20208;-56
2021/12/10 09:18:20;;;;;;;8.73;8.02;;;2.20;76.50;;;;;;5093015;28;20211;-56
2021/12/10 09:20:49;;;;;;;8.98;7.75;;;2.20;76.60;;;;;;5093970;28;20704;-58
2021/12/10 09:23:21;;;;;;;8.68;7.95;;;2.20;75.40;;;;;;5093277;28;20236;-56
2021/12/10 09:25:49;;;;;;;6.53;5.93;;;2.30;75.60;;;;;;5094021;28;20291;-56
2021/12/10 09:28:16;;;;;;;7.55;6.95;;;2.30;74.30;;;;;;5094051;28;20238;-56
2021/12/10 09:30:46;;;;;;;7.70;7.10;;;2.20;74.50;;;;;;5094024;28;20377;-55
2021/12/10 09:33:13;;;;;;;7.82;7.22;;;2.30;74.70;;;;;;5092514;28;20204;-55
2021/12/10 09:35:41;;;;;;;6.70;6.30;;;2.30;73.60;;;;;;5093687;28;20655;-55
2021/12/10 09:38:09;;;;;;;7.90;7.40;;;2.20;73.10;;;;;;5093773;28;20202;-56
2021/12/10 09:40:40;;;;;;;7.30;6.70;;;2.30;73.20;;;;;;5093852;28;20270;-58
2021/12/10 09:43:09;;;;;;;8.18;7.68;;;2.40;73.40;;;;;;5093541;28;20275;-60
2021/12/10 09:45:39;;;;;;;7.30;6.80;;;2.50;73.20;;;;;;5093863;28;20284;-55
2021/12/10 09:48:08;;;;;;;6.88;6.28;;;2.60;73.40;;;;;;5092428;28;20204;-57
2021/12/10 09:50:40;;;;;;;7.15;6.65;;;2.70;72.90;;;;;;5093665;28;20200;-56
2021/12/10 09:53:09;;;;;;;6.72;6.32;;;2.70;71.50;;;;;;5093601;28;20302;-56
2021/12/10 09:55:37;;;;;;;7.53;7.10;;;2.60;71.90;;;;;;5093599;28;20214;-56
2021/12/10 09:58:05;;;;;;;6.85;6.28;;;2.70;72.40;;;;;;5093557;28;20199;-56
2021/12/10 10:00:36;;;;;;;7.88;7.35;;;2.70;72.20;;;;;;5093377;28;20291;-57
2021/12/10 10:03:04;;;;;;;7.18;6.60;;;2.70;70.90;;;;;;5092044;28;20702;-57
2021/12/10 10:05:33;;;;;;;6.53;6.13;;;2.70;71.30;;;;;;5093393;28;20573;-56
2021/12/10 10:08:05;;;;;;;7.97;7.35;;;2.70;70.80;;;;;;5093443;28;20283;-57
2021/12/10 10:10:34;;;;;;;6.70;6.10;;;2.70;70.50;;;;;;5093163;28;20291;-56
2021/12/10 10:13:03;;;;;;;6.28;5.80;;;2.70;70.90;;;;;;5093190;28;20200;-56
2021/12/10 10:15:34;;;;;;;7.30;6.90;;;2.70;70.80;;;;;;5093265;28;20203;-56
2021/12/10 10:18:04;;;;;;;4.43;4.20;;;2.80;71.10;;;;;;5091973;28;20733;-56
2021/12/10 10:20:36;;;;;;;7.15;5.22;;;2.80;71.20;;;;;;5093108;28;20242;-55
2021/12/10 10:23:05;;;;;;;6.90;6.45;;;3.00;71.20;;;;;;5093081;28;20318;-55
2021/12/10 10:25:35;;;;;;;6.85;6.45;;;3.10;70.90;;;;;;5093058;28;20287;-56
2021/12/10 10:28:03;;;;;;;6.78;6.25;;;3.20;70.20;;;;;;5092958;28;20670;-55
2021/12/10 10:30:34;;;;;;;6.50;5.97;;;3.30;70.50;;;;;;5093043;28;20200;-55
2021/12/10 10:33:06;;;;;;;5.53;5.20;;;3.30;69.90;;;;;;5091695;28;20279;-55
2021/12/10 10:35:36;;;;;;;6.30;5.82;;;3.30;69.20;;;;;;5092993;28;20210;-55
2021/12/10 10:38:04;;;;;;;6.10;5.80;;;3.40;69.80;;;;;;5092842;28;20211;-55
2021/12/10 10:40:35;;;;;;;6.78;6.28;;;3.50;70.30;;;;;;5092955;28;20196;-55
2021/12/10 10:43:03;;;;;;;7.05;6.45;;;3.50;68.90;;;;;;5092640;28;20242;-55
2021/12/10 10:45:34;;;;;;;7.13;6.72;;;3.50;69.60;;;;;;5092790;28;20200;-55
2021/12/10 10:48:01;;;;;;;6.95;6.35;;;3.50;67.80;;;;;;5091497;28;20677;-56
2021/12/10 10:50:31;;;;;;;4.50;4.10;;;3.40;67.60;;;;;;5092938;28;20295;-55
2021/12/10 10:53:07;;;;;;;7.00;6.60;;;3.40;67.70;;;;;;5092803;28;20266;-56
2021/12/10 10:55:38;;;;;;;7.57;7.00;;;3.60;68.20;;;;;;5092679;28;20207;-56
2021/12/10 10:58:09;;;;;;;6.18;5.88;;;3.70;67.20;;;;;;5092810;28;20208;-56
2021/12/10 11:00:45;;;;;;;7.20;6.70;;;3.80;67.50;;;;;;5092781;28;20200;-55
2021/12/10 11:03:15;;;;;;;7.10;6.40;;;3.80;67.10;;;;;;5091244;28;20228;-57
2021/12/10 11:05:48;;;;;;;5.25;4.95;;;3.60;67.00;;;;;;5092727;28;20287;-57
2021/12/10 11:08:27;;;;;;;5.57;5.28;;;3.60;67.80;;;;;;5092697;28;20689;-57
2021/12/10 11:10:58;;;;;;;7.28;6.75;;;3.70;67.20;;;;;;5092691;28;20210;-55
2021/12/10 11:13:27;;;;;;;6.32;5.80;;;3.80;66.20;;;;;;5092844;28;20291;-55
2021/12/10 11:15:57;;;;;;;7.07;6.68;;;3.80;66.50;;;;;;5092579;28;20208;-56
2021/12/10 11:18:24;;;;;;;5.15;4.78;;;3.90;65.70;;;;;;5091319;28;20206;-56
2021/12/10 11:20:51;;;;;;;6.40;6.00;;;3.70;65.40;;;;;;5092439;28;20220;-55
2021/12/10 11:23:25;;;;;;;6.97;6.45;;;3.70;66.10;;;;;;5092485;28;20236;-56
2021/12/10 11:25:53;;;;;;;6.72;6.32;;;3.70;65.10;;;;;;5092534;28;20572;-56
2021/12/10 11:28:26;;;;;;;6.93;6.50;;;3.40;64.30;;;;;;5092399;28;20569;-58
2021/12/10 11:31:03;;;;;;;6.57;6.10;;;3.20;65.10;;;;;;5092582;28;20212;-59
2021/12/10 11:33:32;;;;;;;6.10;5.90;;;3.10;65.10;;;;;;5091159;28;20561;-57
2021/12/10 11:36:05;;;;;;;6.22;5.93;;;3.00;66.90;;;;;;5092405;28;20196;-58
2021/12/10 11:38:33;;;;;;;4.28;3.97;;;2.90;67.80;;;;;;5092395;28;20208;-57
2021/12/10 11:41:01;;;;;;;8.10;5.50;;;2.80;68.80;;;;;;5092413;28;20296;-57
2021/12/10 11:43:52;;;;;;;6.20;5.90;;;2.70;69.30;;;;;;5092124;28;20331;-56
2021/12/10 11:49:18;;;;;;;6.25;5.93;;;2.70;70.70;;;;;;5079897;28;20196;-57
2021/12/10 11:51:47;;;;;;;6.03;5.63;;;2.60;73.90;;;;;;5096150;28;20617;-57
2021/12/10 11:54:22;;;;;;;6.10;5.80;;;2.40;75.10;;;;;;5095920;28;20208;-57
2021/12/10 11:56:52;;;;;;;5.72;5.32;;;2.30;78.10;;;;;;5095803;28;20658;-59
2021/12/10 11:59:22;;;;;;;5.53;5.18;;;2.00;81.00;;;;;;5095679;28;20202;-60
2021/12/10 12:01:53;;;;;;;5.15;4.88;;;1.80;83.00;;;;;;5094287;28;20210;-60
2021/12/10 12:04:27;;;;;;;4.80;4.60;;;1.60;84.70;;;;;;5095778;28;20204;-62
2021/12/10 12:07:30;;;;;;;5.10;4.80;;;1.50;85.40;;;;;;5095577;28;20210;-60
2021/12/10 12:10:02;;;;;;;4.22;3.70;;;1.40;86.10;;;;;;5095510;28;20211;-61
2021/12/10 12:12:38;;;;;;;5.90;4.35;;;1.50;85.90;;;;;;5095470;28;20685;-59
2021/12/10 12:15:20;;;;;;;3.88;3.67;;;1.60;86.30;;;;;;5095444;28;20206;-58
2021/12/10 12:17:49;;;;;;;4.30;4.00;;;1.70;85.60;;;;;;5094105;28;20207;-58
2021/12/10 12:20:36;;;;;;;5.45;4.45;;;1.70;86.10;;;;;;5095086;28;20694;-58
2021/12/10 12:25:54;;;;;;;4.50;4.10;;;1.80;85.20;;;;;;5095201;28;20545;-59
2021/12/10 12:28:24;;;;;;;4.10;3.80;;;1.90;84.90;;;;;;5095055;28;20200;-56
2021/12/10 12:31:03;;;;;;;6.47;4.15;;;2.00;84.70;;;;;;5094915;28;20196;-58
2021/12/10 12:33:34;;;;;;;4.97;4.53;;;2.10;84.60;;;;;;5093764;28;20200;-56
2021/12/10 12:36:01;;;;;;;4.80;4.40;;;2.10;84.60;;;;;;5094945;28;20287;-56
2021/12/10 12:38:32;;;;;;;4.32;4.03;;;2.10;84.20;;;;;;5094953;28;20658;-57
2021/12/10 12:41:09;;;;;;;4.93;4.40;;;2.20;84.50;;;;;;5095023;28;20250;-57
2021/12/10 12:43:37;;;;;;;5.53;5.07;;;2.20;84.10;;;;;;5094697;28;20239;-57
2021/12/10 12:46:08;;;;;;;4.32;4.03;;;2.30;84.10;;;;;;5094982;28;20207;-56
2021/12/10 12:48:37;;;;;;;5.18;4.70;;;2.20;84.30;;;;;;5093687;28;20204;-56
2021/12/10 12:51:12;;;;;;;5.32;4.93;;;2.20;84.40;;;;;;5094756;28;20258;-57
2021/12/10 12:53:39;;;;;;;4.78;4.38;;;2.30;84.40;;;;;;5094674;28;20665;-57
2021/12/10 12:56:10;;;;;;;4.63;4.22;;;2.20;84.80;;;;;;5094426;28;20210;-57
2021/12/10 12:58:41;;;;;;;4.90;4.50;;;2.30;84.80;;;;;;5093886;28;20261;-57
2021/12/10 13:01:17;;;;;;;5.55;4.13;;;2.30;84.80;;;;;;5094604;28;20204;-56
2021/12/10 13:03:49;;;;;;;5.20;4.80;;;2.30;84.70;;;;;;5093213;28;20753;-56
2021/12/10 13:06:22;;;;;;;4.82;4.40;;;2.30;84.80;;;;;;5094403;28;20204;-57
2021/12/10 13:08:58;;;;;;;5.70;4.82;;;2.30;85.20;;;;;;5094545;28;20286;-57
2021/12/10 13:11:28;;;;;;;5.82;5.20;;;2.30;85.00;;;;;;5094416;28;20203;-56
2021/12/10 13:14:01;;;;;;;6.60;5.93;;;2.30;85.00;;;;;;5094238;28;20290;-56
2021/12/10 13:16:36;;;;;;;6.80;5.10;;;2.40;84.90;;;;;;5094335;28;20240;-56
2021/12/10 13:19:04;;;;;;;5.30;4.80;;;2.40;85.00;;;;;;5092879;28;20254;-56
2021/12/10 13:21:31;;;;;;;4.90;4.43;;;2.30;85.30;;;;;;5094112;28;20210;-57